createdAt,value
2018-08-27T00:00:07.118Z,20.08
2018-08-27T00:00:40.445Z,22.05
2018-08-27T00:01:13.374Z,24.47
2018-08-27T00:01:46.327Z,29.72
2018-08-27T00:02:19.541Z,23.83
2018-08-27T00:02:52.688Z,24.70
2018-08-27T00:03:25.611Z,26.82
2018-08-27T00:03:58.558Z,22.70
2018-08-27T00:04:31.481Z,23.55
2018-08-27T00:05:04.431Z,20.25
2018-08-27T00:05:37.406Z,23.18
2018-08-27T00:06:10.521Z,22.60
2018-08-27T00:06:43.502Z,19.92
2018-08-27T00:07:16.553Z,24.18
2018-08-27T00:07:49.502Z,18.30
2018-08-27T00:08:22.425Z,16.85
2018-08-27T00:08:55.345Z,20.45
2018-08-27T00:09:28.281Z,17.23
2018-08-27T00:10:01.296Z,23.22
2018-08-27T00:10:34.266Z,21.05
2018-08-27T00:11:07.313Z,15.83
2018-08-27T00:11:40.954Z,23.55
2018-08-27T00:12:13.981Z,21.97
2018-08-27T00:12:47.182Z,18.37
2018-08-27T00:13:20.371Z,19.85
2018-08-27T00:13:53.313Z,21.02
2018-08-27T00:14:26.996Z,15.75
2018-08-27T00:14:59.937Z,19.48
2018-08-27T00:15:33.013Z,23.90
2018-08-27T00:16:05.917Z,25.37
2018-08-27T00:16:39.360Z,21.40
2018-08-27T00:17:12.299Z,23.15
2018-08-27T00:17:45.245Z,20.97
2018-08-27T00:18:18.344Z,24.45
2018-08-27T00:18:51.509Z,20.25
2018-08-27T00:19:24.662Z,23.38
2018-08-27T00:19:57.698Z,21.82
2018-08-27T00:20:30.807Z,19.50
2018-08-27T00:21:04.513Z,23.22
2018-08-27T00:21:37.683Z,19.07
2018-08-27T00:22:10.896Z,22.70
2018-08-27T00:22:44.037Z,22.95
2018-08-27T00:23:16.974Z,20.23
2018-08-27T00:23:50.133Z,22.05
2018-08-27T00:24:23.308Z,19.32
2018-08-27T00:24:56.246Z,23.52
2018-08-27T00:25:29.386Z,22.13
2018-08-27T00:26:02.322Z,26.10
2018-08-27T00:26:35.313Z,21.90
2018-08-27T00:27:08.398Z,18.70
2018-08-27T00:27:41.312Z,19.12
2018-08-27T00:28:14.298Z,20.88
2018-08-27T00:28:47.470Z,23.85
2018-08-27T00:29:20.397Z,24.02
2018-08-27T00:29:53.526Z,19.42
2018-08-27T00:30:26.720Z,22.00
2018-08-27T00:30:59.901Z,24.52
2018-08-27T00:31:33.053Z,19.55
2018-08-27T00:32:06.262Z,20.27
2018-08-27T00:32:39.466Z,21.05
2018-08-27T00:33:12.405Z,18.95
2018-08-27T00:33:45.513Z,19.80
2018-08-27T00:34:18.471Z,19.48
2018-08-27T00:34:51.457Z,21.00
2018-08-27T00:35:24.406Z,21.52
2018-08-27T00:35:57.349Z,22.48
2018-08-27T00:36:30.467Z,17.35
2018-08-27T00:37:03.383Z,20.30
2018-08-27T00:37:36.291Z,25.80
2018-08-27T00:38:09.389Z,21.90
2018-08-27T00:38:42.517Z,19.27
2018-08-27T00:39:15.822Z,20.88
2018-08-27T00:39:48.961Z,20.43
2018-08-27T00:40:22.086Z,21.17
2018-08-27T00:40:55.241Z,22.90
2018-08-27T00:41:28.161Z,24.57
2018-08-27T00:42:01.326Z,17.52
2018-08-27T00:42:34.273Z,22.70
2018-08-27T00:43:07.258Z,20.30
2018-08-27T00:43:40.208Z,22.52
2018-08-27T00:44:13.429Z,17.40
2018-08-27T00:44:46.377Z,16.60
2018-08-27T00:45:19.453Z,19.10
2018-08-27T00:45:52.426Z,25.15
2018-08-27T00:46:25.483Z,23.10
2018-08-27T00:46:58.449Z,20.57
2018-08-27T00:47:31.589Z,18.12
2018-08-27T00:48:04.521Z,19.40
2018-08-27T00:48:37.646Z,22.90
2018-08-27T00:49:10.576Z,18.48
2018-08-27T00:49:43.711Z,22.10
2018-08-27T00:50:16.653Z,19.95
2018-08-27T00:50:49.590Z,17.92
2018-08-27T00:51:22.589Z,22.35
2018-08-27T00:51:55.536Z,19.55
2018-08-27T00:52:28.671Z,19.55
2018-08-27T00:53:01.795Z,23.30
2018-08-27T00:53:34.742Z,29.85
2018-08-27T00:54:07.647Z,29.50
2018-08-27T00:54:40.610Z,20.15
2018-08-27T00:55:13.558Z,18.67
2018-08-27T00:55:46.464Z,26.25
2018-08-27T00:56:19.396Z,25.70
2018-08-27T00:56:52.337Z,23.73
2018-08-27T00:57:25.409Z,24.43
2018-08-27T00:57:58.549Z,22.48
2018-08-27T00:58:31.477Z,28.45
2018-08-27T00:59:04.385Z,25.50
2018-08-27T00:59:37.305Z,21.52
2018-08-27T01:00:10.224Z,27.05
2018-08-27T01:00:43.293Z,26.17
2018-08-27T01:01:16.597Z,25.35
2018-08-27T01:01:49.890Z,26.60
2018-08-27T01:02:22.824Z,24.80
2018-08-27T01:02:55.961Z,29.42
2018-08-27T01:03:29.177Z,27.45
2018-08-27T01:04:02.134Z,26.55
2018-08-27T01:04:35.067Z,35.88
2018-08-27T01:05:07.997Z,31.75
2018-08-27T01:05:40.942Z,30.90
2018-08-27T01:06:14.060Z,28.85
2018-08-27T01:06:47.014Z,28.90
2018-08-27T01:07:20.192Z,28.83
2018-08-27T01:07:53.371Z,28.35
2018-08-27T01:08:26.288Z,29.12
2018-08-27T01:08:59.236Z,27.20
2018-08-27T01:09:32.190Z,27.85
2018-08-27T01:10:05.137Z,28.85
2018-08-27T01:10:38.074Z,27.70
2018-08-27T01:11:11.010Z,29.80
2018-08-27T01:11:44.083Z,34.35
2018-08-27T01:12:17.014Z,30.40
2018-08-27T01:12:50.124Z,35.20
2018-08-27T01:13:23.296Z,30.77
2018-08-27T01:13:56.465Z,31.20
2018-08-27T01:14:29.635Z,38.55
2018-08-27T01:15:02.575Z,38.15
2018-08-27T01:15:35.712Z,38.30
2018-08-27T01:16:08.840Z,34.65
2018-08-27T01:16:41.785Z,31.73
2018-08-27T01:17:14.940Z,35.73
2018-08-27T01:17:48.065Z,35.10
2018-08-27T01:18:21.030Z,35.33
2018-08-27T01:18:54.123Z,39.67
2018-08-27T01:19:27.030Z,38.17
2018-08-27T01:19:59.936Z,42.25
2018-08-27T01:20:32.885Z,38.05
2018-08-27T01:21:05.972Z,41.13
2018-08-27T01:21:39.137Z,34.58
2018-08-27T01:22:12.483Z,36.23
2018-08-27T01:22:45.447Z,39.67
2018-08-27T01:23:18.386Z,38.10
2018-08-27T01:23:51.494Z,47.27
2018-08-27T01:24:24.430Z,42.58
2018-08-27T01:24:57.360Z,44.18
2018-08-27T01:25:30.297Z,38.17
2018-08-27T01:26:03.273Z,37.05
2018-08-27T01:26:36.304Z,36.63
2018-08-27T01:27:09.241Z,38.60
2018-08-27T01:27:42.266Z,40.52
2018-08-27T01:28:15.265Z,35.83
2018-08-27T01:28:48.273Z,37.95
2018-08-27T01:29:21.286Z,38.88
2018-08-27T01:29:54.313Z,40.60
2018-08-27T01:30:27.307Z,37.28
2018-08-27T01:31:00.196Z,41.65
2018-08-27T01:31:33.092Z,36.58
2018-08-27T01:32:11.738Z,35.80
2018-08-27T01:32:44.816Z,41.55
2018-08-27T01:33:17.755Z,31.93
2018-08-27T01:33:51.166Z,38.00
2018-08-27T01:34:24.105Z,37.35
2018-08-27T01:34:58.512Z,32.88
2018-08-27T01:35:31.465Z,34.15
2018-08-27T01:36:04.414Z,35.65
2018-08-27T01:36:37.386Z,28.90
2018-08-27T01:37:10.591Z,38.53
2018-08-27T01:37:43.736Z,32.75
2018-08-27T01:38:16.945Z,30.40
2018-08-27T01:38:50.082Z,27.17
2018-08-27T01:39:23.321Z,28.92
2018-08-27T01:39:56.788Z,31.87
2018-08-27T01:40:30.019Z,30.52
2018-08-27T01:41:03.013Z,25.85
2018-08-27T01:41:36.012Z,40.63
2018-08-27T01:42:08.990Z,28.73
2018-08-27T01:42:41.937Z,29.55
2018-08-27T01:43:15.137Z,23.52
2018-08-27T01:43:48.370Z,32.40
2018-08-27T01:44:21.321Z,24.32
2018-08-27T01:44:54.401Z,30.50
2018-08-27T01:45:27.340Z,27.07
2018-08-27T01:46:00.513Z,28.50
2018-08-27T01:46:33.558Z,27.80
2018-08-27T01:47:06.517Z,23.87
2018-08-27T01:47:39.430Z,25.92
2018-08-27T01:48:12.609Z,24.32
2018-08-27T01:48:45.757Z,26.80
2018-08-27T01:49:18.658Z,29.37
2018-08-27T01:49:51.948Z,33.73
2018-08-27T01:50:25.026Z,25.35
2018-08-27T01:50:58.215Z,26.00
2018-08-27T01:51:31.333Z,29.37
2018-08-27T01:52:04.542Z,25.75
2018-08-27T01:52:37.479Z,26.85
2018-08-27T01:53:10.402Z,27.60
2018-08-27T01:53:43.333Z,29.18
2018-08-27T01:54:16.336Z,26.87
2018-08-27T01:54:49.257Z,30.88
2018-08-27T01:55:22.385Z,26.05
2018-08-27T01:55:55.318Z,30.65
2018-08-27T01:56:28.457Z,27.70
2018-08-27T01:57:02.212Z,28.57
2018-08-27T01:57:35.373Z,30.80
2018-08-27T01:58:08.296Z,27.42
2018-08-27T01:58:45.967Z,32.17
2018-08-27T01:59:18.928Z,30.32
2018-08-27T01:59:51.821Z,29.82
2018-08-27T02:00:24.986Z,30.52
2018-08-27T02:00:58.178Z,35.40
2018-08-27T02:01:31.332Z,27.85
2018-08-27T02:02:04.655Z,37.63
2018-08-27T02:02:37.589Z,30.08
2018-08-27T02:03:10.502Z,33.50
2018-08-27T02:03:43.409Z,30.75
2018-08-27T02:04:16.387Z,34.90
2018-08-27T02:04:49.303Z,38.10
2018-08-27T02:05:22.437Z,32.98
2018-08-27T02:05:55.571Z,28.85
2018-08-27T02:06:34.062Z,27.80
2018-08-27T02:07:07.093Z,27.87
2018-08-27T02:07:40.266Z,32.03
2018-08-27T02:08:13.744Z,32.33
2018-08-27T02:08:46.906Z,33.48
2018-08-27T02:09:19.824Z,31.07
2018-08-27T02:09:53.041Z,38.58
2018-08-27T02:10:26.170Z,28.98
2018-08-27T02:10:59.351Z,36.20
2018-08-27T02:11:32.273Z,32.98
2018-08-27T02:12:05.401Z,29.75
2018-08-27T02:12:38.330Z,41.13
2018-08-27T02:13:11.272Z,31.93
2018-08-27T02:13:44.319Z,30.17
2018-08-27T02:14:17.789Z,33.48
2018-08-27T02:14:51.014Z,33.42
2018-08-27T02:15:24.166Z,31.70
2018-08-27T02:15:57.368Z,34.13
2018-08-27T02:16:30.562Z,30.75
2018-08-27T02:17:03.782Z,33.60
2018-08-27T02:17:36.750Z,35.33
2018-08-27T02:18:09.802Z,40.92
2018-08-27T02:18:42.963Z,41.83
2018-08-27T02:19:16.178Z,42.03
2018-08-27T02:19:49.120Z,47.85
2018-08-27T02:20:22.049Z,46.18
2018-08-27T02:20:55.004Z,46.73
2018-08-27T02:21:28.260Z,43.02
2018-08-27T02:22:01.422Z,57.25
2018-08-27T02:22:34.345Z,49.13
2018-08-27T02:23:07.282Z,41.98
2018-08-27T02:23:40.334Z,47.73
2018-08-27T02:24:13.477Z,51.53
2018-08-27T02:24:46.424Z,47.17
2018-08-27T02:25:19.380Z,40.85
2018-08-27T02:25:52.469Z,48.10
2018-08-27T02:26:25.579Z,43.40
2018-08-27T02:26:58.751Z,40.52
2018-08-27T02:27:31.696Z,47.60
2018-08-27T02:28:04.857Z,43.83
2018-08-27T02:28:38.048Z,44.93
2018-08-27T02:29:10.951Z,51.10
2018-08-27T02:29:44.118Z,47.50
2018-08-27T02:30:17.283Z,47.93
2018-08-27T02:30:50.221Z,40.73
2018-08-27T02:31:23.253Z,38.85
2018-08-27T02:31:56.297Z,45.28
2018-08-27T02:32:29.322Z,41.60
2018-08-27T02:33:02.477Z,43.38
2018-08-27T02:33:35.410Z,41.42
2018-08-27T02:34:08.419Z,36.42
2018-08-27T02:34:41.357Z,38.75
2018-08-27T02:35:14.334Z,29.90
2018-08-27T02:35:47.227Z,28.75
2018-08-27T02:36:20.419Z,26.75
2018-08-27T02:36:53.346Z,26.02
2018-08-27T02:37:26.437Z,22.27
2018-08-27T02:37:59.348Z,23.32
2018-08-27T02:38:32.490Z,23.70
2018-08-27T02:39:07.146Z,18.65
2018-08-27T02:39:40.381Z,16.23
2018-08-27T02:40:13.308Z,16.50
2018-08-27T02:40:46.221Z,11.60
2018-08-27T02:41:19.302Z,9.90
2018-08-27T02:41:52.471Z,11.70
2018-08-27T02:42:25.594Z,13.35
2018-08-27T02:42:58.562Z,12.65
2018-08-27T02:43:31.477Z,7.15
2018-08-27T02:44:04.414Z,6.92
2018-08-27T02:44:37.427Z,9.03
2018-08-27T02:45:10.364Z,11.20
2018-08-27T02:45:43.477Z,9.03
2018-08-27T02:46:16.562Z,6.90
2018-08-27T02:46:49.573Z,5.97
2018-08-27T02:47:22.741Z,4.92
2018-08-27T02:47:55.846Z,12.28
2018-08-27T02:48:29.319Z,6.30
2018-08-27T02:49:02.222Z,6.53
2018-08-27T02:49:35.120Z,5.10
2018-08-27T02:50:08.041Z,4.15
2018-08-27T02:50:40.986Z,8.53
2018-08-27T02:51:14.045Z,6.05
2018-08-27T02:51:47.109Z,7.47
2018-08-27T02:52:20.097Z,6.75
2018-08-27T02:52:53.215Z,4.65
2018-08-27T02:53:26.434Z,3.00
2018-08-27T02:53:59.341Z,5.80
2018-08-27T02:54:32.442Z,4.08
2018-08-27T02:55:05.361Z,6.30
2018-08-27T02:55:38.268Z,6.92
2018-08-27T02:56:11.420Z,10.50
2018-08-27T02:56:44.338Z,9.40
2018-08-27T02:57:17.478Z,4.83
2018-08-27T02:57:50.432Z,7.92
2018-08-27T02:58:23.365Z,8.80
2018-08-27T02:58:56.269Z,9.73
2018-08-27T02:59:29.230Z,7.03
2018-08-27T03:00:02.147Z,6.72
2018-08-27T03:00:35.319Z,7.45
2018-08-27T03:01:08.265Z,9.70
2018-08-27T03:01:41.227Z,7.42
2018-08-27T03:02:14.262Z,8.95
2018-08-27T03:02:47.419Z,11.10
2018-08-27T03:03:20.557Z,13.75
2018-08-27T03:03:53.470Z,9.30
2018-08-27T03:04:26.642Z,14.63
2018-08-27T03:05:00.108Z,11.12
2018-08-27T03:05:33.021Z,6.30
2018-08-27T03:06:06.185Z,9.10
2018-08-27T03:06:39.358Z,10.05
2018-08-27T03:07:12.713Z,7.28
2018-08-27T03:07:45.956Z,6.70
2018-08-27T03:08:18.893Z,5.53
2018-08-27T03:08:52.042Z,7.65
2018-08-27T03:09:25.284Z,6.70
2018-08-27T03:09:58.217Z,7.08
2018-08-27T03:10:31.292Z,9.63
2018-08-27T03:11:04.233Z,8.40
2018-08-27T03:11:37.209Z,5.55
2018-08-27T03:12:10.137Z,6.90
2018-08-27T03:12:43.085Z,7.15
2018-08-27T03:13:16.220Z,5.25
2018-08-27T03:13:49.433Z,5.80
2018-08-27T03:14:22.352Z,5.75
2018-08-27T03:14:55.507Z,9.20
2018-08-27T03:15:28.662Z,6.67
2018-08-27T03:16:01.599Z,10.58
2018-08-27T03:16:34.713Z,11.03
2018-08-27T03:17:07.896Z,6.03
2018-08-27T03:17:40.785Z,8.28
2018-08-27T03:18:14.128Z,9.85
2018-08-27T03:18:47.147Z,6.28
2018-08-27T03:19:20.313Z,6.42
2018-08-27T03:19:53.472Z,8.28
2018-08-27T03:20:26.653Z,8.80
2018-08-27T03:21:00.124Z,9.33
2018-08-27T03:21:33.293Z,9.60
2018-08-27T03:22:06.214Z,10.28
2018-08-27T03:22:39.371Z,9.53
2018-08-27T03:23:12.317Z,13.95
2018-08-27T03:23:45.437Z,7.22
2018-08-27T03:24:18.593Z,15.80
2018-08-27T03:24:51.517Z,10.60
2018-08-27T03:25:24.605Z,9.78
2018-08-27T03:25:57.594Z,12.05
2018-08-27T03:26:30.961Z,11.80
2018-08-27T03:27:03.922Z,13.62
2018-08-27T03:27:37.019Z,10.08
2018-08-27T03:28:09.933Z,13.95
2018-08-27T03:28:43.170Z,9.53
2018-08-27T03:29:16.124Z,10.90
2018-08-27T03:29:49.122Z,8.78
2018-08-27T03:30:22.151Z,10.05
2018-08-27T03:30:55.460Z,11.57
2018-08-27T03:31:28.386Z,9.55
2018-08-27T03:32:01.613Z,9.58
2018-08-27T03:32:34.694Z,10.98
2018-08-27T03:33:07.624Z,12.53
2018-08-27T03:33:40.792Z,16.62
2018-08-27T03:34:13.923Z,13.68
2018-08-27T03:34:46.847Z,11.78
2018-08-27T03:35:19.770Z,10.38
2018-08-27T03:35:52.893Z,15.72
2018-08-27T03:36:26.070Z,11.95
2018-08-27T03:36:59.019Z,11.65
2018-08-27T03:37:31.961Z,12.73
2018-08-27T03:38:05.345Z,14.70
2018-08-27T03:38:38.346Z,12.20
2018-08-27T03:39:12.340Z,13.00
2018-08-27T03:39:45.464Z,14.75
2018-08-27T03:40:18.534Z,11.22
2018-08-27T03:40:51.505Z,12.25
2018-08-27T03:41:24.622Z,15.05
2018-08-27T03:41:57.864Z,12.85
2018-08-27T03:42:31.029Z,14.15
2018-08-27T03:43:03.999Z,12.18
2018-08-27T03:43:37.060Z,13.65
2018-08-27T03:44:10.763Z,14.15
2018-08-27T03:44:43.737Z,10.70
2018-08-27T03:45:16.786Z,13.93
2018-08-27T03:45:49.802Z,11.83
2018-08-27T03:46:22.731Z,14.47
2018-08-27T03:46:55.846Z,18.12
2018-08-27T03:47:29.090Z,13.85
2018-08-27T03:48:02.273Z,16.55
2018-08-27T03:48:35.439Z,11.68
2018-08-27T03:49:08.415Z,17.02
2018-08-27T03:49:41.421Z,14.25
2018-08-27T03:50:14.509Z,13.45
2018-08-27T03:50:47.509Z,13.53
2018-08-27T03:51:20.429Z,17.62
2018-08-27T03:51:53.485Z,12.45
2018-08-27T03:52:26.424Z,10.13
2018-08-27T03:52:59.588Z,13.40
2018-08-27T03:53:32.571Z,14.70
2018-08-27T03:54:40.296Z,16.12
2018-08-27T03:55:13.252Z,17.17
2018-08-27T03:55:46.376Z,15.85
2018-08-27T03:56:19.317Z,14.93
2018-08-27T03:56:52.423Z,12.63
2018-08-27T03:57:25.344Z,10.80
2018-08-27T03:57:58.634Z,12.07
2018-08-27T03:58:31.680Z,13.28
2018-08-27T03:59:04.879Z,13.05
2018-08-27T03:59:37.931Z,15.50
2018-08-27T04:00:10.927Z,15.72
2018-08-27T04:00:44.229Z,11.03
2018-08-27T04:01:17.230Z,11.30
2018-08-27T04:01:50.277Z,12.98
2018-08-27T04:02:23.352Z,11.68
2018-08-27T04:02:56.597Z,10.05
2018-08-27T04:03:29.644Z,14.80
2018-08-27T04:04:02.548Z,13.43
2018-08-27T04:04:35.496Z,10.08
2018-08-27T04:05:08.613Z,10.45
2018-08-27T04:05:41.777Z,13.98
2018-08-27T04:06:14.949Z,11.65
2018-08-27T04:06:47.887Z,12.45
2018-08-27T04:07:21.243Z,10.10
2018-08-27T04:07:54.442Z,11.63
2018-08-27T04:08:27.821Z,7.70
2018-08-27T04:09:00.946Z,12.35
2018-08-27T04:09:34.057Z,10.03
2018-08-27T04:10:07.103Z,10.32
2018-08-27T04:10:40.080Z,8.85
2018-08-27T04:11:13.359Z,17.57
2018-08-27T04:11:46.698Z,8.58
2018-08-27T04:12:19.735Z,9.40
2018-08-27T04:12:52.756Z,8.75
2018-08-27T04:13:25.685Z,12.82
2018-08-27T04:13:59.658Z,8.63
2018-08-27T04:14:32.801Z,11.60
2018-08-27T04:15:05.729Z,12.80
2018-08-27T04:15:38.682Z,9.93
2018-08-27T04:16:11.949Z,10.98
2018-08-27T04:16:45.030Z,10.43
2018-08-27T04:17:34.657Z,13.60
2018-08-27T04:18:07.728Z,10.93
2018-08-27T04:18:40.995Z,10.32
2018-08-27T04:19:14.034Z,9.98
2018-08-27T04:19:46.971Z,8.73
2018-08-27T04:20:19.989Z,7.83
2018-08-27T04:20:52.994Z,8.15
2018-08-27T04:21:26.169Z,8.75
2018-08-27T04:21:59.220Z,7.03
2018-08-27T04:22:32.458Z,8.50
2018-08-27T04:23:05.436Z,7.60
2018-08-27T04:23:38.367Z,11.28
2018-08-27T04:24:11.545Z,6.67
2018-08-27T04:24:44.618Z,6.72
2018-08-27T04:25:17.726Z,10.05
2018-08-27T04:25:50.686Z,6.85
2018-08-27T04:26:24.186Z,6.33
2018-08-27T04:26:57.317Z,4.83
2018-08-27T04:27:30.280Z,6.70
2018-08-27T04:28:03.351Z,5.65
2018-08-27T04:28:36.659Z,5.92
2018-08-27T04:29:10.522Z,5.37
2018-08-27T04:29:43.493Z,6.22
2018-08-27T04:30:16.421Z,5.78
2018-08-27T04:30:49.515Z,6.40
2018-08-27T04:31:22.754Z,5.80
2018-08-27T04:31:55.706Z,7.30
2018-08-27T04:32:28.788Z,5.58
2018-08-27T04:33:02.083Z,8.58
2018-08-27T04:33:35.106Z,8.23
2018-08-27T04:34:08.417Z,8.73
2018-08-27T04:34:41.509Z,6.70
2018-08-27T04:35:14.466Z,4.85
2018-08-27T04:35:48.198Z,5.20
2018-08-27T04:36:21.658Z,6.42
2018-08-27T04:36:54.767Z,6.55
2018-08-27T04:37:28.040Z,4.55
2018-08-27T04:38:01.517Z,7.05
2018-08-27T04:38:34.678Z,5.78
2018-08-27T04:39:08.432Z,3.55
2018-08-27T04:39:41.673Z,5.97
2018-08-27T04:40:15.154Z,3.67
2018-08-27T04:40:48.296Z,6.53
2018-08-27T04:41:21.245Z,7.28
2018-08-27T04:41:54.255Z,5.75
2018-08-27T04:42:27.334Z,3.40
2018-08-27T04:43:00.349Z,4.22
2018-08-27T04:43:33.600Z,3.90
2018-08-27T04:44:06.670Z,4.25
2018-08-27T04:44:39.637Z,6.22
2018-08-27T04:45:12.748Z,2.85
2018-08-27T04:45:46.097Z,3.42
2018-08-27T04:46:19.417Z,3.60
2018-08-27T04:46:52.393Z,5.67
2018-08-27T04:47:25.306Z,4.55
2018-08-27T04:47:58.430Z,8.13
2018-08-27T04:48:31.607Z,3.55
2018-08-27T04:49:04.729Z,5.20
2018-08-27T04:49:37.705Z,4.45
2018-08-27T04:50:10.695Z,3.98
2018-08-27T04:50:43.751Z,3.72
2018-08-27T04:51:16.898Z,4.00
2018-08-27T04:51:50.038Z,4.03
2018-08-27T04:52:23.157Z,4.35
2018-08-27T04:52:56.086Z,3.08
2018-08-27T04:53:28.995Z,3.12
2018-08-27T04:54:02.120Z,3.27
2018-08-27T04:54:35.087Z,4.25
2018-08-27T04:55:08.289Z,5.05
2018-08-27T04:55:41.326Z,4.50
2018-08-27T04:56:14.277Z,2.60
2018-08-27T04:56:47.252Z,2.72
2018-08-27T04:57:20.316Z,4.40
2018-08-27T04:57:53.240Z,5.05
2018-08-27T04:58:28.355Z,2.92
2018-08-27T04:59:06.872Z,1.87
2018-08-27T04:59:42.738Z,4.83
2018-08-27T05:00:27.901Z,3.37
2018-08-27T05:01:00.877Z,2.85
2018-08-27T05:01:34.061Z,2.95
2018-08-27T05:02:07.185Z,3.00
2018-08-27T05:02:40.539Z,4.37
2018-08-27T05:03:13.544Z,3.58
2018-08-27T05:03:46.610Z,2.17
2018-08-27T05:04:19.627Z,2.45
2018-08-27T05:04:52.673Z,5.03
2018-08-27T05:05:25.668Z,5.22
2018-08-27T05:05:58.855Z,5.42
2018-08-27T05:06:32.273Z,4.22
2018-08-27T05:07:05.465Z,3.40
2018-08-27T05:07:39.056Z,2.30
2018-08-27T05:08:12.335Z,2.60
2018-08-27T05:08:45.386Z,3.27
2018-08-27T05:09:18.366Z,4.42
2018-08-27T05:09:51.417Z,2.10
2018-08-27T05:10:24.962Z,3.70
2018-08-27T05:10:57.937Z,2.60
2018-08-27T05:11:30.922Z,1.92
2018-08-27T05:12:03.951Z,4.53
2018-08-27T05:12:36.999Z,3.70
2018-08-27T05:13:10.246Z,2.10
2018-08-27T05:13:43.177Z,3.37
2018-08-27T05:14:16.948Z,4.78
2018-08-27T05:14:49.900Z,2.95
2018-08-27T05:15:22.888Z,2.00
2018-08-27T05:15:56.161Z,2.40
2018-08-27T05:16:29.226Z,3.45
2018-08-27T05:17:02.380Z,4.28
2018-08-27T05:17:35.350Z,2.10
2018-08-27T05:18:08.869Z,3.67
2018-08-27T05:18:42.183Z,3.75
2018-08-27T05:19:16.156Z,3.60
2018-08-27T05:19:49.274Z,2.25
2018-08-27T05:20:22.364Z,2.65
2018-08-27T05:20:55.384Z,3.70
2018-08-27T05:21:28.871Z,4.37
2018-08-27T05:22:01.946Z,3.45
2018-08-27T05:22:35.079Z,2.30
2018-08-27T05:23:08.384Z,2.37
2018-08-27T05:23:41.437Z,2.70
2018-08-27T05:24:14.794Z,6.42
2018-08-27T05:24:47.751Z,3.58
2018-08-27T05:25:20.679Z,3.72
2018-08-27T05:25:53.732Z,3.40
2018-08-27T05:26:26.814Z,2.55
2018-08-27T05:26:59.770Z,3.35
2018-08-27T05:27:32.816Z,7.37
2018-08-27T05:28:05.791Z,2.65
2018-08-27T05:28:38.796Z,2.52
2018-08-27T05:29:11.738Z,4.20
2018-08-27T05:29:45.313Z,6.90
2018-08-27T05:30:18.378Z,3.98
2018-08-27T05:30:51.731Z,5.03
2018-08-27T05:31:24.691Z,2.33
2018-08-27T05:31:57.973Z,5.90
2018-08-27T05:32:30.888Z,2.80
2018-08-27T05:33:04.349Z,4.97
2018-08-27T05:33:37.420Z,4.28
2018-08-27T05:34:10.669Z,2.72
2018-08-27T05:34:43.846Z,8.00
2018-08-27T05:35:17.134Z,4.08
2018-08-27T05:35:50.122Z,2.67
2018-08-27T05:36:23.292Z,4.60
2018-08-27T05:36:56.825Z,2.95
2018-08-27T05:37:29.854Z,5.17
2018-08-27T05:38:03.027Z,2.50
2018-08-27T05:38:36.176Z,3.00
2018-08-27T05:39:10.041Z,3.72
2018-08-27T05:40:23.279Z,3.42
2018-08-27T05:40:56.440Z,4.80
2018-08-27T05:41:29.375Z,2.85
2018-08-27T05:42:02.466Z,2.83
2018-08-27T05:42:35.742Z,3.72
2018-08-27T05:43:09.650Z,3.77
2018-08-27T05:43:43.330Z,3.72
2018-08-27T05:44:16.343Z,3.75
2018-08-27T05:44:49.402Z,2.55
2018-08-27T05:45:22.529Z,5.00
2018-08-27T05:45:55.781Z,3.10
2018-08-27T05:46:28.961Z,3.60
2018-08-27T05:47:02.162Z,2.65
2018-08-27T05:47:35.778Z,3.83
2018-08-27T05:48:08.999Z,4.72
2018-08-27T05:48:42.335Z,4.03
2018-08-27T05:49:15.565Z,3.05
2018-08-27T05:49:48.616Z,2.42
2018-08-27T05:50:21.683Z,2.75
2018-08-27T05:50:55.521Z,3.80
2018-08-27T05:51:29.015Z,2.70
2018-08-27T05:52:02.230Z,7.30
2018-08-27T05:52:35.725Z,3.85
2018-08-27T05:53:08.719Z,4.78
2018-08-27T05:53:41.720Z,9.00
2018-08-27T05:54:14.761Z,5.83
2018-08-27T05:54:48.325Z,3.60
2018-08-27T05:55:21.435Z,2.52
2018-08-27T05:55:54.443Z,5.17
2018-08-27T05:56:27.654Z,6.55
2018-08-27T05:57:00.766Z,2.67
2018-08-27T05:57:33.986Z,7.08
2018-08-27T05:58:07.047Z,2.67
2018-08-27T05:58:40.084Z,3.83
2018-08-27T05:59:13.272Z,4.90
2018-08-27T05:59:46.320Z,4.37
2018-08-27T06:00:19.656Z,5.45
2018-08-27T06:00:52.736Z,5.08
2018-08-27T06:01:25.848Z,3.12
2018-08-27T06:01:59.273Z,3.95
2018-08-27T06:02:33.109Z,4.08
2018-08-27T06:03:06.114Z,2.50
2018-08-27T06:03:39.540Z,2.35
2018-08-27T06:04:12.723Z,3.08
2018-08-27T06:04:45.899Z,3.27
2018-08-27T06:05:18.850Z,5.83
2018-08-27T06:05:51.904Z,3.05
2018-08-27T06:06:25.082Z,2.62
2018-08-27T06:06:57.995Z,4.37
2018-08-27T06:07:30.950Z,4.28
2018-08-27T06:08:04.557Z,2.60
2018-08-27T06:08:37.621Z,3.42
2018-08-27T06:09:10.976Z,6.10
2018-08-27T06:09:43.930Z,5.12
2018-08-27T06:10:17.248Z,4.90
2018-08-27T06:10:50.207Z,3.72
2018-08-27T06:11:23.413Z,2.25
2018-08-27T06:11:56.370Z,6.30
2018-08-27T06:12:29.644Z,6.70
2018-08-27T06:13:02.593Z,3.37
2018-08-27T06:13:35.607Z,4.00
2018-08-27T06:14:08.688Z,5.15
2018-08-27T06:14:41.663Z,3.12
2018-08-27T06:15:14.708Z,2.95
2018-08-27T06:15:47.628Z,3.30
2018-08-27T06:16:20.685Z,2.30
2018-08-27T06:16:53.672Z,2.42
2018-08-27T06:17:26.852Z,2.25
2018-08-27T06:18:00.022Z,5.28
2018-08-27T06:18:32.953Z,2.65
2018-08-27T06:19:05.893Z,2.62
2018-08-27T06:19:38.981Z,2.00
2018-08-27T06:20:11.949Z,7.20
2018-08-27T06:20:44.940Z,2.72
2018-08-27T06:21:17.883Z,2.92
2018-08-27T06:21:51.060Z,2.70
2018-08-27T06:22:24.315Z,2.40
2018-08-27T06:22:57.605Z,2.55
2018-08-27T06:23:30.800Z,3.10
2018-08-27T06:24:03.814Z,2.62
2018-08-27T06:24:36.794Z,1.80
2018-08-27T06:25:10.682Z,1.85
2018-08-27T06:25:43.608Z,2.80
2018-08-27T06:26:16.740Z,5.87
2018-08-27T06:26:49.658Z,5.87
2018-08-27T06:27:22.866Z,1.52
2018-08-27T06:27:56.351Z,1.80
2018-08-27T06:28:29.478Z,3.75
2018-08-27T06:29:03.709Z,4.03
2018-08-27T06:29:36.980Z,4.50
2018-08-27T06:30:11.465Z,2.95
2018-08-27T06:30:45.889Z,2.55
2018-08-27T06:31:22.015Z,2.30
2018-08-27T06:31:55.682Z,3.98
2018-08-27T06:32:31.224Z,2.22
2018-08-27T06:33:07.016Z,2.45
2018-08-27T06:33:42.690Z,3.90
2018-08-27T06:34:16.231Z,2.85
2018-08-27T06:34:50.258Z,2.60
2018-08-27T06:35:23.689Z,3.90
2018-08-27T06:35:59.674Z,3.00
2018-08-27T06:36:34.430Z,3.00
2018-08-27T06:37:07.910Z,7.08
2018-08-27T06:37:42.569Z,2.08
2018-08-27T06:38:16.178Z,2.00
2018-08-27T06:38:51.048Z,3.60
2018-08-27T06:39:24.964Z,3.87
2018-08-27T06:40:00.835Z,1.90
2018-08-27T06:40:33.910Z,5.50
2018-08-27T06:41:07.090Z,1.92
2018-08-27T06:41:40.368Z,2.65
2018-08-27T06:42:13.368Z,3.17
2018-08-27T06:42:46.571Z,1.92
2018-08-27T06:43:19.688Z,3.42
2018-08-27T06:43:52.757Z,1.85
2018-08-27T06:44:25.828Z,2.50
2018-08-27T06:44:59.025Z,3.00
2018-08-27T06:45:31.990Z,2.90
2018-08-27T06:46:05.134Z,2.58
2018-08-27T06:46:38.705Z,8.25
2018-08-27T06:47:11.824Z,3.10
2018-08-27T06:47:45.205Z,4.30
2018-08-27T06:48:18.236Z,2.85
2018-08-27T06:48:51.351Z,4.10
2018-08-27T06:49:24.394Z,2.20
2018-08-27T06:49:57.402Z,1.80
2018-08-27T06:50:30.442Z,3.50
2018-08-27T06:51:04.279Z,4.17
2018-08-27T06:51:38.392Z,2.67
2018-08-27T06:52:11.515Z,3.70
2018-08-27T06:52:44.593Z,2.72
2018-08-27T06:53:18.274Z,3.65
2018-08-27T06:53:51.345Z,2.83
2018-08-27T06:54:24.425Z,2.62
2018-08-27T06:54:57.502Z,3.62
2018-08-27T06:55:30.636Z,2.62
2018-08-27T06:56:03.569Z,2.10
2018-08-27T06:56:36.634Z,5.22
2018-08-27T06:57:09.622Z,4.47
2018-08-27T06:57:43.141Z,3.40
2018-08-27T06:58:16.323Z,6.15
2018-08-27T06:58:49.245Z,3.27
2018-08-27T06:59:22.281Z,2.85
2018-08-27T06:59:55.250Z,4.83
2018-08-27T07:00:28.351Z,3.27
2018-08-27T07:01:01.836Z,2.00
2018-08-27T07:01:34.771Z,2.83
2018-08-27T07:02:08.207Z,4.12
2018-08-27T07:02:41.187Z,5.40
2018-08-27T07:03:14.931Z,7.87
2018-08-27T07:03:47.935Z,5.50
2018-08-27T07:04:21.577Z,2.10
2018-08-27T07:04:54.624Z,2.80
2018-08-27T07:05:27.585Z,6.45
2018-08-27T07:06:00.750Z,4.87
2018-08-27T07:06:34.116Z,4.10
2018-08-27T07:07:07.103Z,4.75
2018-08-27T07:07:40.318Z,3.50
2018-08-27T07:08:13.277Z,7.83
2018-08-27T07:08:46.286Z,5.37
2018-08-27T07:09:19.513Z,5.37
2018-08-27T07:09:52.640Z,3.58
2018-08-27T07:10:25.553Z,5.55
2018-08-27T07:10:58.570Z,6.17
2018-08-27T07:11:31.720Z,5.33
2018-08-27T07:12:04.709Z,3.60
2018-08-27T07:12:37.790Z,6.97
2018-08-27T07:13:10.828Z,6.65
2018-08-27T07:13:43.738Z,5.92
2018-08-27T07:14:19.603Z,6.65
2018-08-27T07:14:56.339Z,4.60
2018-08-27T07:15:30.032Z,4.47
2018-08-27T07:16:05.463Z,4.40